Time;durP1;ratioP1;P1;durP2;ratioP2;P2;SDS_P1;SDS_P2;PMS_P1;PMS_P2;Temp;Humidity;BMP_temperature;BMP_pressure;BME280_temperature;BME280_humidity;BME280_pressure;Samples;Min_cycle;Max_cycle;Signal;HPM_P1;HPM_P2
2021/05/02 00:02:03;;;;;;;42.50;29.27;;;10.00;99.90;;;;;;5051224;28;20017;-71
2021/05/02 00:04:29;;;;;;;38.70;28.98;;;10.00;99.90;;;;;;5052737;28;20098;-72
2021/05/02 00:06:55;;;;;;;35.40;26.42;;;10.00;99.90;;;;;;5051506;28;20479;-71
2021/05/02 00:09:20;;;;;;;47.30;30.52;;;10.00;99.90;;;;;;5052660;28;20025;-71
2021/05/02 00:11:46;;;;;;;40.88;28.90;;;10.00;99.90;;;;;;5052462;28;20033;-71
2021/05/02 00:14:12;;;;;;;37.42;26.38;;;9.90;99.90;;;;;;5051105;28;20060;-71
2021/05/02 00:16:37;;;;;;;36.50;26.52;;;9.90;99.90;;;;;;5052446;28;20158;-71
2021/05/02 00:19:08;;;;;;;40.70;28.30;;;9.90;99.90;;;;;;5052330;28;20040;-71
2021/05/02 00:21:34;;;;;;;41.17;29.27;;;9.90;99.90;;;;;;5052167;28;20507;-70
2021/05/02 00:24:00;;;;;;;42.92;28.95;;;9.80;99.90;;;;;;5052422;28;20060;-71
2021/05/02 00:26:26;;;;;;;42.15;29.20;;;9.70;99.90;;;;;;5052273;28;20037;-71
2021/05/02 00:28:52;;;;;;;43.65;28.45;;;9.80;99.90;;;;;;5052047;28;20411;-72
2021/05/02 00:31:18;;;;;;;38.90;28.33;;;9.80;99.90;;;;;;5053080;28;20035;-72
2021/05/02 00:33:45;;;;;;;42.75;29.45;;;9.80;99.90;;;;;;5051972;28;20025;-72
2021/05/02 00:36:11;;;;;;;40.17;28.55;;;9.80;99.90;;;;;;5052307;28;20017;-71
2021/05/02 00:38:39;;;;;;;42.10;27.38;;;9.90;99.90;;;;;;5051994;28;20397;-72
2021/05/02 00:41:32;;;;;;;41.58;29.23;;;9.90;99.90;;;;;;5052404;28;20017;-72
2021/05/02 00:44:24;;;;;;;41.33;28.00;;;9.90;99.90;;;;;;5050608;28;20482;-72
2021/05/02 00:46:57;;;;;;;42.67;27.83;;;9.90;99.90;;;;;;5043437;28;20037;-72
2021/05/02 00:49:38;;;;;;;37.70;26.42;;;9.90;99.90;;;;;;5051750;28;20048;-72
2021/05/02 00:52:27;;;;;;;42.20;29.23;;;9.90;99.90;;;;;;5051557;28;20108;-72
2021/05/02 00:55:02;;;;;;;42.90;28.25;;;9.80;99.90;;;;;;5050317;28;20025;-72
2021/05/02 00:57:43;;;;;;;42.25;28.38;;;9.80;99.90;;;;;;5051615;28;20021;-72
2021/05/02 01:00:10;;;;;;;;;;;9.90;99.90;;;;;;5052046;28;20411;-72
2021/05/02 01:02:36;;;;;;;42.25;27.63;;;9.80;99.90;;;;;;5049979;28;20284;-71
2021/05/02 01:05:07;;;;;;;40.60;27.73;;;9.70;99.90;;;;;;5051610;28;20032;-72
2021/05/02 01:07:39;;;;;;;41.75;28.42;;;9.70;99.90;;;;;;5051452;28;20035;-72
2021/05/02 01:10:17;;;;;;;40.97;27.90;;;9.80;99.90;;;;;;5051410;28;20031;-71
2021/05/02 01:12:48;;;;;;;40.65;28.23;;;9.80;99.90;;;;;;5051257;28;20021;-72
2021/05/02 01:15:21;;;;;;;42.05;28.88;;;9.80;99.90;;;;;;5051325;28;20502;-72
2021/05/02 01:17:51;;;;;;;40.67;27.83;;;9.80;99.90;;;;;;5045183;28;20056;-71
2021/05/02 01:20:17;;;;;;;40.50;27.65;;;9.80;99.90;;;;;;5040036;28;20021;-72
2021/05/02 01:22:44;;;;;;;41.72;27.92;;;9.80;99.90;;;;;;5041171;28;20032;-72
2021/05/02 01:25:11;;;;;;;45.13;28.17;;;9.70;99.90;;;;;;5041471;28;20021;-72
2021/05/02 01:27:37;;;;;;;43.40;29.08;;;9.70;99.90;;;;;;5039518;28;20029;-71
2021/05/02 01:30:08;;;;;;;46.10;30.45;;;9.70;99.90;;;;;;5040785;28;20445;-71
2021/05/02 01:32:35;;;;;;;40.58;28.05;;;9.70;99.90;;;;;;5041729;28;20160;-71
2021/05/02 01:35:04;;;;;;;38.25;27.48;;;9.70;99.90;;;;;;5039925;28;20053;-72
2021/05/02 01:37:31;;;;;;;35.90;25.95;;;9.70;99.90;;;;;;5039964;28;20476;-71
2021/05/02 01:39:58;;;;;;;37.28;26.50;;;9.70;99.90;;;;;;5040166;28;20029;-71
2021/05/02 01:42:23;;;;;;;40.22;28.23;;;9.70;99.90;;;;;;5040166;28;20053;-72
2021/05/02 01:44:49;;;;;;;39.13;27.25;;;9.60;99.90;;;;;;5042173;28;20055;-71
2021/05/02 01:47:20;;;;;;;38.30;26.27;;;9.50;99.90;;;;;;5039372;28;20109;-72
2021/05/02 01:49:49;;;;;;;35.25;25.27;;;9.60;99.90;;;;;;5037299;28;20021;-72
2021/05/02 01:52:17;;;;;;;37.45;25.92;;;9.60;99.90;;;;;;5030621;28;20464;-72
2021/05/02 01:54:44;;;;;;;39.20;27.17;;;9.60;99.90;;;;;;5029466;28;20029;-72
2021/05/02 01:57:16;;;;;;;37.67;27.33;;;9.60;99.90;;;;;;5030921;28;20492;-71
2021/05/02 01:59:42;;;;;;;38.75;27.27;;;9.60;99.90;;;;;;5038241;28;20017;-71
2021/05/02 02:02:08;;;;;;;38.08;27.70;;;9.60;99.90;;;;;;5038948;28;20037;-72
2021/05/02 02:04:35;;;;;;;39.20;27.15;;;9.50;99.90;;;;;;5040675;28;20387;-71
2021/05/02 02:07:00;;;;;;;40.35;27.60;;;9.50;99.90;;;;;;5041460;28;20063;-71
2021/05/02 02:09:29;;;;;;;39.55;27.52;;;9.50;99.90;;;;;;5041149;28;20037;-72
2021/05/02 02:11:54;;;;;;;41.30;28.48;;;9.50;99.90;;;;;;5039742;28;20021;-72
2021/05/02 02:14:23;;;;;;;38.58;27.60;;;9.50;99.90;;;;;;5038757;28;20036;-72
2021/05/02 02:16:48;;;;;;;39.70;28.20;;;9.50;99.90;;;;;;5042017;28;20052;-71
2021/05/02 02:19:14;;;;;;;39.40;27.33;;;9.50;99.90;;;;;;5049581;28;20056;-72
2021/05/02 02:21:42;;;;;;;38.05;27.38;;;9.50;99.90;;;;;;5053589;28;20031;-71
2021/05/02 02:24:11;;;;;;;40.53;27.55;;;9.50;99.90;;;;;;5053734;28;20082;-71
2021/05/02 02:26:51;;;;;;;37.63;26.95;;;9.60;99.90;;;;;;5054634;28;20406;-71
2021/05/02 02:29:18;;;;;;;36.95;26.02;;;9.60;99.90;;;;;;5053245;28;20044;-71
2021/05/02 02:31:46;;;;;;;38.60;26.13;;;9.60;99.90;;;;;;5043363;28;20491;-71
2021/05/02 02:34:14;;;;;;;34.67;24.38;;;9.60;99.90;;;;;;5044865;28;20037;-72
2021/05/02 02:36:41;;;;;;;36.00;25.27;;;9.50;99.90;;;;;;5043439;28;20010;-71
2021/05/02 02:39:07;;;;;;;32.35;23.02;;;9.50;99.90;;;;;;5035531;28;20047;-72
2021/05/02 02:41:38;;;;;;;33.53;22.98;;;9.50;99.90;;;;;;5034075;28;20544;-71
2021/05/02 02:44:07;;;;;;;32.97;23.13;;;9.50;99.90;;;;;;5043996;28;20039;-71
2021/05/02 02:46:33;;;;;;;31.20;22.27;;;9.50;99.90;;;;;;5042741;28;20048;-71
2021/05/02 02:49:00;;;;;;;32.95;22.60;;;9.40;99.90;;;;;;5044656;28;20063;-71
2021/05/02 02:51:28;;;;;;;30.35;22.00;;;9.50;99.90;;;;;;5043971;28;20083;-71
2021/05/02 02:53:57;;;;;;;30.77;21.27;;;9.50;99.90;;;;;;5041159;28;20028;-71
2021/05/02 02:56:23;;;;;;;28.05;19.55;;;9.50;99.90;;;;;;5043669;28;20029;-72
2021/05/02 02:59:02;;;;;;;24.15;17.23;;;9.50;99.90;;;;;;5041749;28;20017;-71
2021/05/02 03:01:27;;;;;;;23.38;17.30;;;9.40;99.90;;;;;;5043856;28;20029;-71
2021/05/02 03:03:56;;;;;;;22.75;15.65;;;9.40;99.90;;;;;;5042734;28;20014;-71
2021/05/02 03:06:26;;;;;;;23.60;16.17;;;9.40;99.90;;;;;;5043738;28;20017;-71
2021/05/02 03:08:53;;;;;;;22.70;15.65;;;9.50;99.90;;;;;;5044395;28;20028;-71
2021/05/02 03:11:20;;;;;;;22.77;16.67;;;9.50;99.90;;;;;;5042922;28;20419;-72
2021/05/02 03:13:46;;;;;;;19.85;14.45;;;9.40;99.90;;;;;;5043176;28;20407;-71
2021/05/02 03:16:12;;;;;;;20.70;15.32;;;9.40;99.90;;;;;;5042840;28;20028;-71
2021/05/02 03:18:49;;;;;;;21.27;14.73;;;9.40;99.90;;;;;;5042500;28;20103;-71
2021/05/02 03:21:21;;;;;;;18.40;13.30;;;9.40;99.90;;;;;;5041278;28;20388;-72
2021/05/02 03:23:51;;;;;;;20.30;13.45;;;9.50;99.90;;;;;;5033574;28;20285;-71
2021/05/02 03:26:18;;;;;;;17.63;12.23;;;9.50;99.90;;;;;;5032415;28;20025;-71
2021/05/02 03:28:48;;;;;;;19.25;13.48;;;9.50;99.90;;;;;;5032183;28;20037;-71
2021/05/02 03:31:16;;;;;;;21.33;15.27;;;9.40;99.90;;;;;;5033421;28;20032;-71
2021/05/02 03:33:47;;;;;;;19.40;13.73;;;9.40;99.90;;;;;;5033428;28;20111;-71
2021/05/02 03:36:16;;;;;;;18.90;12.68;;;9.40;99.90;;;;;;5033494;28;20021;-71
2021/05/02 03:38:47;;;;;;;17.75;12.32;;;9.40;99.90;;;;;;5033546;28;20045;-71
2021/05/02 03:41:14;;;;;;;18.17;13.27;;;9.30;99.90;;;;;;5033654;28;20036;-71
2021/05/02 03:43:40;;;;;;;18.58;13.05;;;9.40;99.90;;;;;;5032156;28;20575;-72
2021/05/02 03:46:05;;;;;;;19.00;13.38;;;9.30;99.90;;;;;;5033334;28;20057;-71
2021/05/02 03:48:32;;;;;;;17.75;12.65;;;9.40;99.90;;;;;;5033312;28;20022;-71
2021/05/02 03:50:59;;;;;;;18.70;13.43;;;9.30;99.90;;;;;;5033142;28;20026;-72
2021/05/02 03:53:25;;;;;;;17.52;12.55;;;9.30;99.90;;;;;;5031561;28;20031;-72
2021/05/02 03:55:50;;;;;;;17.55;12.07;;;9.30;99.90;;;;;;5033014;28;20025;-71
2021/05/02 03:58:17;;;;;;;15.85;11.63;;;9.30;99.90;;;;;;5033040;28;20121;-71
2021/05/02 04:00:44;;;;;;;17.42;12.85;;;9.30;99.90;;;;;;5031696;28;20076;-71
2021/05/02 04:03:13;;;;;;;19.30;13.60;;;9.30;99.90;;;;;;5032767;28;20060;-71
2021/05/02 04:05:40;;;;;;;17.20;12.13;;;9.30;99.90;;;;;;5032891;28;20053;-71
2021/05/02 04:08:05;;;;;;;19.00;12.68;;;9.30;99.90;;;;;;5033024;28;20025;-71
2021/05/02 04:10:32;;;;;;;17.02;12.30;;;9.30;99.90;;;;;;5032698;28;20022;-71
2021/05/02 04:12:57;;;;;;;16.98;11.88;;;9.20;99.90;;;;;;5032627;28;20459;-72
2021/05/02 04:15:23;;;;;;;18.02;12.85;;;9.20;99.90;;;;;;5032531;28;20029;-71
2021/05/02 04:17:48;;;;;;;17.58;12.50;;;9.30;99.90;;;;;;5032560;28;20083;-71
2021/05/02 04:20:14;;;;;;;18.02;12.25;;;9.20;99.90;;;;;;5032479;28;20033;-72
2021/05/02 04:22:40;;;;;;;17.10;12.02;;;9.20;99.90;;;;;;5032480;28;20041;-72
2021/05/02 04:25:06;;;;;;;16.27;11.50;;;9.20;99.90;;;;;;5032431;28;20021;-72
2021/05/02 04:27:32;;;;;;;19.48;12.68;;;9.20;99.90;;;;;;5032396;28;20131;-71
2021/05/02 04:29:58;;;;;;;19.58;13.68;;;9.20;99.90;;;;;;5032252;28;20581;-72
2021/05/02 04:32:24;;;;;;;19.70;13.25;;;9.30;99.90;;;;;;5030791;28;20025;-72
2021/05/02 04:34:50;;;;;;;19.75;13.35;;;9.30;99.90;;;;;;5032144;28;20078;-71
2021/05/02 04:37:16;;;;;;;21.73;14.07;;;9.30;99.90;;;;;;5032358;28;20104;-72
2021/05/02 04:39:41;;;;;;;19.80;14.38;;;9.30;99.90;;;;;;5032187;28;20033;-72
2021/05/02 04:42:07;;;;;;;21.92;14.82;;;9.30;99.90;;;;;;5031872;28;20040;-72
2021/05/02 04:44:33;;;;;;;23.25;15.27;;;9.20;99.90;;;;;;5031708;28;20105;-72
2021/05/02 04:46:58;;;;;;;22.98;14.55;;;9.20;99.90;;;;;;5031958;28;20100;-71
2021/05/02 04:49:25;;;;;;;24.92;15.60;;;9.20;99.90;;;;;;5031877;28;20052;-71
2021/05/02 04:51:51;;;;;;;25.55;15.48;;;9.20;99.90;;;;;;5031756;28;20021;-72
2021/05/02 04:54:16;;;;;;;26.38;15.88;;;9.20;99.90;;;;;;5030562;28;20125;-72
2021/05/02 04:56:42;;;;;;;25.13;15.85;;;9.30;99.90;;;;;;5032076;28;20029;-71
2021/05/02 04:59:08;;;;;;;23.58;15.18;;;9.20;99.90;;;;;;5031648;28;20499;-72
2021/05/02 05:01:36;;;;;;;21.20;13.50;;;9.20;99.90;;;;;;5031419;28;20045;-72
2021/05/02 05:04:02;;;;;;;22.63;14.77;;;9.20;99.90;;;;;;5031704;28;20025;-72
2021/05/02 05:06:28;;;;;;;27.38;18.30;;;9.20;99.90;;;;;;5031701;28;20108;-72
2021/05/02 05:08:53;;;;;;;31.17;20.05;;;9.10;99.90;;;;;;5030248;28;20135;-72
2021/05/02 05:11:20;;;;;;;31.45;21.45;;;9.10;99.90;;;;;;5030086;28;20077;-71
2021/05/02 05:13:46;;;;;;;35.08;22.42;;;9.00;99.90;;;;;;5031526;28;20025;-71
2021/05/02 05:16:12;;;;;;;38.80;23.92;;;9.00;99.90;;;;;;5030288;28;20021;-72
2021/05/02 05:18:38;;;;;;;39.85;24.67;;;8.90;99.90;;;;;;5031413;28;20072;-71
2021/05/02 05:21:03;;;;;;;40.97;24.73;;;9.00;99.90;;;;;;5031376;28;20026;-71
2021/05/02 05:23:29;;;;;;;35.22;22.73;;;9.10;99.90;;;;;;5031357;28;20156;-71
2021/05/02 05:25:55;;;;;;;36.78;24.38;;;9.00;99.90;;;;;;5030019;28;20025;-72
2021/05/02 05:28:23;;;;;;;36.00;23.35;;;8.90;99.90;;;;;;5031237;28;20041;-72
2021/05/02 05:30:52;;;;;;;40.58;24.83;;;8.90;99.90;;;;;;5031095;28;20037;-72
2021/05/02 05:33:19;;;;;;;36.45;24.35;;;8.90;99.90;;;;;;5030813;28;20040;-71
2021/05/02 05:35:45;;;;;;;34.05;23.38;;;8.90;99.90;;;;;;5031133;28;20071;-71
2021/05/02 05:38:11;;;;;;;32.70;22.50;;;8.80;99.90;;;;;;5031140;28;20053;-71
2021/05/02 05:40:37;;;;;;;33.85;22.80;;;8.80;99.90;;;;;;5031118;28;20014;-71
2021/05/02 05:43:03;;;;;;;33.33;22.60;;;8.70;99.90;;;;;;5030815;28;20032;-72
2021/05/02 05:45:30;;;;;;;34.05;22.35;;;8.60;99.90;;;;;;5030934;28;20064;-72
2021/05/02 05:47:56;;;;;;;30.75;21.88;;;8.60;99.90;;;;;;5031332;28;20049;-71
2021/05/02 05:50:23;;;;;;;33.70;21.85;;;8.70;99.90;;;;;;5031040;28;20492;-72
2021/05/02 05:52:50;;;;;;;39.67;25.38;;;8.70;99.90;;;;;;5029494;28;20396;-71
2021/05/02 05:55:17;;;;;;;33.55;23.45;;;8.50;99.90;;;;;;5030139;28;20026;-71
2021/05/02 05:57:47;;;;;;;37.03;23.45;;;8.50;99.90;;;;;;5029663;28;20045;-71
2021/05/02 06:00:13;;;;;;;39.42;26.33;;;8.60;99.90;;;;;;5029862;28;20416;-71
2021/05/02 06:02:39;;;;;;;38.63;24.33;;;8.60;99.90;;;;;;5030658;28;20108;-71
2021/05/02 06:05:05;;;;;;;38.30;25.52;;;8.60;99.90;;;;;;5030905;28;20104;-72
2021/05/02 06:07:31;;;;;;;40.60;25.77;;;8.60;99.90;;;;;;5030853;28;20037;-72
2021/05/02 06:09:56;;;;;;;36.35;24.17;;;8.60;99.90;;;;;;5030806;28;20361;-72
2021/05/02 06:12:22;;;;;;;35.85;24.50;;;8.80;99.90;;;;;;5029159;28;20021;-71
2021/05/02 06:14:48;;;;;;;37.35;24.77;;;8.80;99.90;;;;;;5029330;28;20056;-71
2021/05/02 06:17:14;;;;;;;40.67;25.98;;;8.90;99.90;;;;;;5030780;28;20481;-72
2021/05/02 06:19:40;;;;;;;39.97;26.15;;;8.90;99.90;;;;;;5038546;28;20166;-71
2021/05/02 06:22:05;;;;;;;39.70;26.02;;;8.90;99.90;;;;;;5050157;28;20698;-71
2021/05/02 06:24:31;;;;;;;40.25;26.05;;;8.90;99.90;;;;;;5050592;28;20538;-71
2021/05/02 06:26:57;;;;;;;40.85;26.58;;;8.80;99.90;;;;;;5050523;28;20094;-71
2021/05/02 06:29:23;;;;;;;37.75;25.20;;;8.70;99.90;;;;;;5050243;28;20051;-72
2021/05/02 06:31:49;;;;;;;40.05;25.98;;;8.80;99.90;;;;;;5050668;28;20410;-72
2021/05/02 06:34:14;;;;;;;36.63;25.00;;;8.80;99.90;;;;;;5049034;28;20029;-71
2021/05/02 06:36:41;;;;;;;37.30;25.30;;;8.80;99.90;;;;;;5050324;28;20435;-71
2021/05/02 06:39:09;;;;;;;40.15;26.88;;;8.70;99.90;;;;;;5050354;28;20048;-70
2021/05/02 06:41:39;;;;;;;37.63;25.25;;;8.60;99.90;;;;;;5048873;28;20079;-72
2021/05/02 06:44:06;;;;;;;34.92;25.00;;;8.60;99.90;;;;;;5050550;28;20290;-72
2021/05/02 06:46:32;;;;;;;35.38;21.95;;;8.70;99.90;;;;;;5050343;28;20421;-71
2021/05/02 06:49:01;;;;;;;35.97;25.10;;;8.80;99.90;;;;;;5048938;28;20017;-71
2021/05/02 06:51:27;;;;;;;38.58;24.35;;;8.80;99.90;;;;;;5048747;28;20021;-71
2021/05/02 06:53:53;;;;;;;36.15;24.38;;;8.90;99.90;;;;;;5046636;28;20017;-70
2021/05/02 06:56:19;;;;;;;31.95;22.20;;;8.90;99.90;;;;;;5037925;28;20478;-71
2021/05/02 06:58:51;;;;;;;33.05;22.25;;;9.10;99.90;;;;;;5043053;28;20052;-70
2021/05/02 07:01:16;;;;;;;36.95;23.38;;;9.20;99.90;;;;;;5050029;28;20431;-70
2021/05/02 07:03:42;;;;;;;31.92;22.60;;;9.20;99.90;;;;;;5050214;28;20025;-70
2021/05/02 07:06:08;;;;;;;34.85;23.02;;;9.20;99.90;;;;;;5050607;28;20029;-70
2021/05/02 07:08:34;;;;;;;34.58;22.85;;;9.30;99.90;;;;;;5053818;28;20033;-71
2021/05/02 07:11:00;;;;;;;32.78;21.33;;;9.40;99.90;;;;;;5048695;28;20040;-71
2021/05/02 07:13:27;;;;;;;32.33;22.60;;;9.60;99.90;;;;;;5033501;28;20040;-72
2021/05/02 07:15:53;;;;;;;33.67;22.13;;;9.70;99.90;;;;;;5033793;28;20021;-70
2021/05/02 07:18:18;;;;;;;31.02;20.20;;;9.90;99.90;;;;;;5033745;28;20140;-71
2021/05/02 07:20:44;;;;;;;30.90;20.42;;;10.10;99.90;;;;;;5033696;28;20021;-73
2021/05/02 07:23:10;;;;;;;35.60;21.67;;;10.20;99.90;;;;;;5036747;28;20009;-72
2021/05/02 07:25:36;;;;;;;28.77;21.10;;;10.20;99.90;;;;;;5044041;28;20083;-71
2021/05/02 07:28:01;;;;;;;34.28;21.55;;;10.30;99.90;;;;;;5047458;28;20029;-71
2021/05/02 07:30:27;;;;;;;35.30;21.60;;;10.30;99.90;;;;;;5038726;28;20526;-70
2021/05/02 07:32:53;;;;;;;31.15;20.40;;;10.40;99.90;;;;;;5053446;28;20502;-72
2021/05/02 07:35:18;;;;;;;28.05;19.15;;;10.30;99.90;;;;;;5047690;28;20037;-71
2021/05/02 07:37:44;;;;;;;27.08;20.33;;;10.30;99.90;;;;;;5038127;28;20489;-72
2021/05/02 07:40:11;;;;;;;27.08;19.33;;;10.40;99.90;;;;;;5041244;28;20033;-74
2021/05/02 07:42:37;;;;;;;31.15;20.67;;;10.40;99.90;;;;;;5049469;28;20458;-73
2021/05/02 07:45:04;;;;;;;29.50;19.08;;;10.50;99.90;;;;;;5048458;28;20049;-74
2021/05/02 07:47:29;;;;;;;27.83;19.52;;;10.60;99.90;;;;;;5041376;28;20025;-74
2021/05/02 07:49:56;;;;;;;29.27;19.58;;;10.50;99.90;;;;;;5050129;28;20168;-74
2021/05/02 07:52:22;;;;;;;28.90;19.73;;;10.50;99.90;;;;;;5051589;28;20492;-72
2021/05/02 07:54:47;;;;;;;28.35;18.58;;;10.50;99.90;;;;;;5052080;28;20068;-74
2021/05/02 07:57:13;;;;;;;28.77;20.60;;;10.30;99.90;;;;;;5046184;28;20033;-74
2021/05/02 07:59:38;;;;;;;28.70;18.02;;;10.30;99.90;;;;;;5041835;28;20025;-74
2021/05/02 08:02:07;;;;;;;24.10;18.13;;;10.20;99.90;;;;;;5035777;28;20029;-71
2021/05/02 08:04:39;;;;;;;28.73;19.00;;;10.40;99.90;;;;;;5047280;28;20032;-73
2021/05/02 08:07:06;;;;;;;26.17;17.00;;;10.50;99.90;;;;;;5048414;28;20124;-74
2021/05/02 08:09:31;;;;;;;23.17;16.20;;;10.60;99.90;;;;;;5049270;28;20439;-73
2021/05/02 08:11:57;;;;;;;22.33;15.75;;;10.90;99.90;;;;;;5041095;28;20033;-73
2021/05/02 08:14:22;;;;;;;26.10;17.67;;;11.00;99.90;;;;;;5046194;28;20040;-72
2021/05/02 08:16:48;;;;;;;26.95;16.77;;;11.00;99.90;;;;;;5043236;28;20146;-73
2021/05/02 08:19:13;;;;;;;21.75;15.80;;;11.00;99.90;;;;;;5035480;28;20014;-73
2021/05/02 08:21:39;;;;;;;26.10;16.27;;;11.20;99.90;;;;;;5039119;28;20039;-72
2021/05/02 08:24:05;;;;;;;27.40;17.67;;;11.30;99.90;;;;;;5042463;28;20025;-72
2021/05/02 08:26:31;;;;;;;23.77;16.45;;;11.40;99.90;;;;;;5040508;28;20531;-72
2021/05/02 08:28:57;;;;;;;21.98;16.35;;;11.40;99.90;;;;;;5045156;28;20111;-73
2021/05/02 08:31:23;;;;;;;23.98;16.00;;;11.30;99.90;;;;;;5050453;28;20056;-73
2021/05/02 08:33:48;;;;;;;23.52;17.00;;;11.20;99.90;;;;;;5051071;28;20021;-74
2021/05/02 08:36:17;;;;;;;27.15;16.83;;;11.20;99.90;;;;;;5052063;28;20025;-74
2021/05/02 08:38:43;;;;;;;22.83;16.10;;;11.10;99.90;;;;;;5037615;28;20021;-72
2021/05/02 08:41:08;;;;;;;24.00;16.70;;;10.90;99.90;;;;;;5030889;28;20108;-72
2021/05/02 08:43:35;;;;;;;22.08;14.93;;;11.00;99.90;;;;;;5041280;28;20029;-73
2021/05/02 08:46:01;;;;;;;20.52;14.73;;;11.30;99.10;;;;;;5047123;28;20029;-73
2021/05/02 08:48:27;;;;;;;21.63;14.68;;;11.50;99.60;;;;;;5042353;28;20078;-73
2021/05/02 08:50:56;;;;;;;18.95;13.82;;;11.60;98.80;;;;;;5030485;28;20472;-73
2021/05/02 08:53:22;;;;;;;20.75;14.73;;;11.70;99.70;;;;;;5041069;28;20144;-73
2021/05/02 08:55:47;;;;;;;19.13;13.25;;;11.80;99.30;;;;;;5043472;28;20056;-73
2021/05/02 08:58:18;;;;;;;20.50;12.90;;;11.80;97.80;;;;;;5042003;28;20025;-73
2021/05/02 09:00:45;;;;;;;22.25;13.23;;;11.90;99.10;;;;;;5040845;28;20048;-73
2021/05/02 09:03:11;;;;;;;17.85;12.45;;;12.00;98.90;;;;;;5039986;28;20021;-72
2021/05/02 09:05:47;;;;;;;18.15;13.23;;;12.00;99.70;;;;;;5046293;28;20594;-73
2021/05/02 09:08:33;;;;;;;19.35;12.13;;;11.70;97.80;;;;;;5042172;28;21388;-72
2021/05/02 09:11:00;;;;;;;19.50;13.85;;;11.20;98.40;;;;;;5038354;28;20026;-73
2021/05/02 09:13:27;;;;;;;17.20;12.05;;;10.90;99.20;;;;;;5032790;28;20087;-73
2021/05/02 09:16:01;;;;;;;18.77;12.48;;;11.00;98.50;;;;;;5034226;28;20430;-73
2021/05/02 09:18:48;;;;;;;19.25;13.52;;;10.90;99.10;;;;;;5040572;28;20016;-73
2021/05/02 09:21:29;;;;;;;17.63;13.48;;;11.10;99.30;;;;;;5034552;28;20075;-72
2021/05/02 09:23:56;;;;;;;20.48;13.80;;;11.40;98.50;;;;;;5042047;28;20025;-74
2021/05/02 09:26:24;;;;;;;20.42;13.05;;;11.40;97.70;;;;;;5029956;28;20472;-73
2021/05/02 09:28:55;;;;;;;18.05;12.90;;;11.50;98.20;;;;;;5029905;28;20063;-72
2021/05/02 09:31:27;;;;;;;20.10;13.50;;;11.80;97.80;;;;;;5038964;28;20021;-75
2021/05/02 09:33:54;;;;;;;20.05;13.07;;;11.90;98.00;;;;;;5035167;28;20047;-74
2021/05/02 09:36:21;;;;;;;17.88;12.25;;;11.90;96.30;;;;;;5031246;28;20092;-74
2021/05/02 09:38:48;;;;;;;17.80;13.05;;;12.10;97.40;;;;;;5031010;28;20472;-74
2021/05/02 09:41:15;;;;;;;17.83;11.35;;;12.20;96.60;;;;;;5031030;28;20048;-75
2021/05/02 09:43:44;;;;;;;17.02;11.90;;;12.20;96.20;;;;;;5030064;28;20450;-74
2021/05/02 09:46:28;;;;;;;17.63;11.85;;;12.00;95.40;;;;;;5030031;28;20021;-74
2021/05/02 09:48:57;;;;;;;15.98;11.55;;;12.00;95.60;;;;;;5031472;28;20477;-75
2021/05/02 09:51:25;;;;;;;21.23;13.15;;;11.90;96.20;;;;;;5031053;28;20472;-73
2021/05/02 09:54:13;;;;;;;20.15;12.65;;;12.00;97.20;;;;;;5029966;28;20319;-73
2021/05/02 09:56:50;;;;;;;18.58;13.00;;;11.90;95.70;;;;;;5029822;28;20030;-73
2021/05/02 09:59:23;;;;;;;18.27;12.43;;;11.80;97.60;;;;;;5031202;28;20025;-75
2021/05/02 10:02:07;;;;;;;16.42;11.70;;;12.10;96.00;;;;;;5029428;28;20047;-73
2021/05/02 10:04:33;;;;;;;15.63;11.60;;;12.10;95.30;;;;;;5029815;28;20480;-72
2021/05/02 10:07:10;;;;;;;15.95;10.60;;;12.00;94.50;;;;;;5029439;28;20033;-75
2021/05/02 10:09:37;;;;;;;15.13;11.05;;;11.60;94.50;;;;;;5029770;28;20083;-74
2021/05/02 10:12:06;;;;;;;15.80;11.23;;;11.40;94.30;;;;;;5029286;28;20030;-75
2021/05/02 10:14:33;;;;;;;15.85;10.02;;;11.30;95.20;;;;;;5030807;28;20053;-73
2021/05/02 10:17:00;;;;;;;17.75;10.50;;;11.40;94.00;;;;;;5030649;28;20447;-74
2021/05/02 10:19:26;;;;;;;15.80;9.77;;;11.30;93.50;;;;;;5029540;28;20238;-75
2021/05/02 10:21:52;;;;;;;13.27;9.88;;;11.40;94.30;;;;;;5030560;28;20030;-75
2021/05/02 10:24:17;;;;;;;15.25;9.88;;;11.50;93.90;;;;;;5029509;28;20049;-75
2021/05/02 10:26:43;;;;;;;15.55;9.52;;;11.80;93.90;;;;;;5030748;28;20017;-75
2021/05/02 10:29:08;;;;;;;12.77;8.55;;;11.90;93.70;;;;;;5029281;28;20072;-74
2021/05/02 10:31:41;;;;;;;14.43;9.43;;;11.70;92.90;;;;;;5030380;28;20033;-72
2021/05/02 10:34:32;;;;;;;15.45;9.88;;;11.50;92.50;;;;;;5030572;28;20032;-76
2021/05/02 10:37:27;;;;;;;15.77;9.85;;;11.40;93.10;;;;;;5029381;28;20029;-73
2021/05/02 10:39:58;;;;;;;14.82;10.60;;;11.30;94.30;;;;;;5038268;28;20040;-73
2021/05/02 10:42:43;;;;;;;14.57;10.18;;;11.10;93.10;;;;;;5044231;28;20025;-76
2021/05/02 10:45:27;;;;;;;17.88;11.88;;;10.80;94.60;;;;;;5043916;28;20092;-75
2021/05/02 10:47:54;;;;;;;15.07;11.02;;;10.70;95.80;;;;;;5042956;28;20018;-75
2021/05/02 10:50:36;;;;;;;19.02;11.18;;;10.70;96.00;;;;;;5037278;28;20030;-75
2021/05/02 10:53:10;;;;;;;15.27;10.57;;;10.80;96.20;;;;;;5034179;28;20021;-76
2021/05/02 10:56:04;;;;;;;16.52;11.05;;;11.00;95.90;;;;;;5034124;28;20028;-74
2021/05/02 10:58:35;;;;;;;16.50;11.52;;;11.10;96.20;;;;;;5032940;28;20029;-75
2021/05/02 11:01:24;;;;;;;16.67;11.27;;;11.10;96.20;;;;;;5034050;28;20053;-75
2021/05/02 11:03:53;;;;;;;18.33;11.98;;;11.20;96.30;;;;;;5032760;28;20048;-73
2021/05/02 11:06:38;;;;;;;17.85;11.90;;;11.30;96.00;;;;;;5032606;28;20028;-75
2021/05/02 11:09:08;;;;;;;15.68;10.50;;;11.30;96.30;;;;;;5046919;28;20471;-75
2021/05/02 11:11:45;;;;;;;15.55;11.50;;;11.30;96.40;;;;;;5047354;28;20037;-75
2021/05/02 11:14:15;;;;;;;17.30;11.80;;;11.20;96.10;;;;;;5033884;28;20026;-75
2021/05/02 11:16:43;;;;;;;15.88;10.70;;;11.20;96.40;;;;;;5033700;28;20029;-72
2021/05/02 11:19:12;;;;;;;16.33;10.57;;;11.40;95.20;;;;;;5033804;28;20033;-74
2021/05/02 11:21:46;;;;;;;17.80;11.27;;;11.50;95.10;;;;;;5033513;28;20032;-75
2021/05/02 11:24:16;;;;;;;15.25;10.70;;;11.60;94.30;;;;;;5033669;28;20022;-75
2021/05/02 11:32:00;;;;;;;15.50;10.20;;;12.10;92.90;;;;;;5044848;28;20013;-74
2021/05/02 11:34:26;;;;;;;16.00;10.60;;;12.20;93.40;;;;;;5053403;28;20028;-74
2021/05/02 11:36:52;;;;;;;14.70;9.88;;;12.10;92.40;;;;;;5053419;28;20033;-74
2021/05/02 11:39:30;;;;;;;12.55;9.00;;;12.10;94.80;;;;;;5050220;28;20374;-75
2021/05/02 11:42:07;;;;;;;14.10;9.35;;;12.00;92.20;;;;;;5043632;28;20025;-74
2021/05/02 11:44:35;;;;;;;14.30;8.90;;;11.70;92.80;;;;;;5053308;28;20434;-74
2021/05/02 11:47:12;;;;;;;15.30;10.45;;;11.50;92.70;;;;;;5053167;28;20044;-74
2021/05/02 11:49:41;;;;;;;12.13;9.13;;;11.50;92.60;;;;;;5051859;28;20204;-74
2021/05/02 11:52:07;;;;;;;14.77;9.07;;;11.40;92.20;;;;;;5051541;28;20052;-74
2021/05/02 11:54:33;;;;;;;14.05;9.68;;;11.30;93.10;;;;;;5052049;28;20029;-74
2021/05/02 11:56:59;;;;;;;13.70;9.32;;;11.20;95.40;;;;;;5051888;28;20056;-74
2021/05/02 11:59:25;;;;;;;16.88;10.00;;;11.10;96.60;;;;;;5051886;28;20067;-74
2021/05/02 12:01:50;;;;;;;13.93;9.43;;;10.70;95.70;;;;;;5051497;28;20563;-74
2021/05/02 12:04:18;;;;;;;14.00;8.85;;;10.40;96.90;;;;;;5052880;28;20100;-74
2021/05/02 12:06:46;;;;;;;15.45;9.90;;;10.30;96.20;;;;;;5051675;28;20025;-72
2021/05/02 12:09:18;;;;;;;16.88;9.93;;;10.20;98.00;;;;;;5052821;28;20176;-73
2021/05/02 12:11:52;;;;;;;14.20;9.85;;;10.20;97.80;;;;;;5052526;28;20017;-74
2021/05/02 12:14:19;;;;;;;14.82;9.10;;;10.30;97.80;;;;;;5049534;28;20033;-75
2021/05/02 12:16:49;;;;;;;13.98;8.60;;;10.40;98.10;;;;;;5053044;28;20371;-75
2021/05/02 12:19:15;;;;;;;;;;;10.20;97.20;;;;;;5053003;28;20013;-75
2021/05/02 12:21:45;;;;;;;12.68;7.97;;;10.20;97.60;;;;;;5051153;28;19904;-75
2021/05/02 12:24:11;;;;;;;12.65;7.88;;;10.20;97.30;;;;;;5051313;28;20112;-75
2021/05/02 12:26:43;;;;;;;15.45;7.90;;;10.40;98.40;;;;;;5051269;28;20107;-73
2021/05/02 12:29:17;;;;;;;11.32;7.43;;;10.50;97.80;;;;;;5052300;28;20064;-75
2021/05/02 12:31:42;;;;;;;11.57;7.18;;;10.60;96.80;;;;;;5052579;28;20059;-75
2021/05/02 12:34:10;;;;;;;11.90;7.68;;;10.80;96.60;;;;;;5043296;28;20052;-74
2021/05/02 12:36:36;;;;;;;10.25;6.40;;;11.30;96.90;;;;;;5051002;28;20123;-74
2021/05/02 12:39:08;;;;;;;12.70;6.57;;;11.90;94.70;;;;;;5050937;28;20107;-74
2021/05/02 12:41:36;;;;;;;10.75;7.10;;;12.60;92.40;;;;;;5051941;28;20021;-74
2021/05/02 12:44:19;;;;;;;10.75;6.25;;;13.10;93.30;;;;;;5050886;28;20031;-74
2021/05/02 12:46:48;;;;;;;10.48;6.63;;;13.70;93.40;;;;;;5049559;28;20119;-74